Time;durP1;ratioP1;P1;durP2;ratioP2;P2;SDS_P1;SDS_P2;PMS_P1;PMS_P2;Temp;Humidity;BMP_temperature;BMP_pressure;BME280_temperature;BME280_humidity;BME280_pressure;Samples;Min_cycle;Max_cycle;Signal;HPM_P1;HPM_P2
2022/10/10 00:01:47;;;;;;;7.10;1.65;;;10.20;91.10;;;;;;5034288;28;20033;-73
2022/10/10 00:04:13;;;;;;;4.18;1.60;;;10.20;91.10;;;;;;5028192;28;20991;-73
2022/10/10 00:06:38;;;;;;;3.47;1.45;;;10.10;91.20;;;;;;5029395;28;20059;-74
2022/10/10 00:09:05;;;;;;;6.53;1.48;;;10.10;91.10;;;;;;5030863;28;20068;-73
2022/10/10 00:11:31;;;;;;;4.30;1.80;;;10.10;91.10;;;;;;5024104;28;20036;-74
2022/10/10 00:13:57;;;;;;;4.57;1.63;;;10.20;91.10;;;;;;5032087;28;20037;-74
2022/10/10 00:16:23;;;;;;;2.65;1.33;;;10.10;91.10;;;;;;5033739;28;20121;-73
2022/10/10 00:18:50;;;;;;;7.13;1.80;;;10.10;91.10;;;;;;5039240;28;20057;-73
2022/10/10 00:21:16;;;;;;;6.43;1.67;;;10.10;91.10;;;;;;5034595;28;20018;-73
2022/10/10 00:23:42;;;;;;;3.75;1.33;;;10.10;91.00;;;;;;5036211;28;20039;-73
2022/10/10 00:26:08;;;;;;;3.63;1.52;;;10.10;91.00;;;;;;5030376;28;20033;-74
2022/10/10 00:28:37;;;;;;;6.35;2.03;;;10.10;91.00;;;;;;5037277;28;20045;-68
2022/10/10 00:31:04;;;;;;;5.38;1.67;;;10.10;91.00;;;;;;5030737;28;20033;-73
2022/10/10 00:33:30;;;;;;;3.63;1.58;;;10.10;91.00;;;;;;5026946;28;20045;-73
2022/10/10 00:35:56;;;;;;;3.60;1.70;;;10.10;91.00;;;;;;5039844;28;20031;-73
2022/10/10 00:38:22;;;;;;;4.30;1.45;;;10.10;91.00;;;;;;5038524;28;20033;-73
2022/10/10 00:40:53;;;;;;;4.65;1.63;;;10.10;91.00;;;;;;5033420;28;20040;-73
2022/10/10 00:43:21;;;;;;;3.65;1.70;;;10.00;91.00;;;;;;5048518;28;20724;-73
2022/10/10 00:45:47;;;;;;;4.90;1.60;;;10.00;91.00;;;;;;5033002;28;20144;-73
2022/10/10 00:48:20;;;;;;;3.97;1.40;;;10.00;91.10;;;;;;5027324;28;20029;-73
2022/10/10 00:51:01;;;;;;;5.35;1.98;;;9.90;91.10;;;;;;5033708;28;20064;-73
2022/10/10 00:53:39;;;;;;;7.40;1.52;;;10.00;91.50;;;;;;5029850;28;20047;-73
2022/10/10 00:56:06;;;;;;;3.25;1.45;;;9.90;91.20;;;;;;5030984;28;20816;-73
2022/10/10 00:58:34;;;;;;;5.53;1.75;;;9.90;91.30;;;;;;5033430;28;20067;-73
2022/10/10 01:01:00;;;;;;;4.20;1.77;;;10.00;91.30;;;;;;5034832;28;20112;-73
2022/10/10 01:03:26;;;;;;;4.57;1.70;;;9.90;91.30;;;;;;5027737;28;20071;-74
2022/10/10 01:05:52;;;;;;;5.50;1.60;;;9.90;91.30;;;;;;5034446;28;20037;-73
2022/10/10 01:08:19;;;;;;;5.25;2.03;;;9.90;91.20;;;;;;5029136;28;20039;-73
2022/10/10 01:10:48;;;;;;;3.78;1.52;;;9.90;91.10;;;;;;5032509;28;20061;-74
2022/10/10 01:13:45;;;;;;;3.83;1.60;;;9.90;91.20;;;;;;5035557;28;20112;-67
2022/10/10 01:16:23;;;;;;;5.93;1.95;;;9.90;91.10;;;;;;5036286;28;20485;-67
2022/10/10 01:19:17;;;;;;;8.02;1.75;;;9.90;91.10;;;;;;5034199;28;20034;-67
2022/10/10 01:21:49;;;;;;;3.50;1.73;;;9.80;91.00;;;;;;5035328;28;20040;-67
2022/10/10 01:24:27;;;;;;;2.30;1.38;;;9.80;91.10;;;;;;5032507;28;20029;-67
2022/10/10 01:27:05;;;;;;;3.13;1.60;;;9.80;91.10;;;;;;5030301;28;20052;-67
2022/10/10 01:29:57;;;;;;;4.78;1.35;;;9.70;91.10;;;;;;5029935;28;20092;-73
2022/10/10 01:32:48;;;;;;;4.40;1.50;;;9.70;91.10;;;;;;5034929;28;20045;-73
2022/10/10 01:35:32;;;;;;;5.57;1.90;;;9.70;91.10;;;;;;5036490;28;20037;-73
2022/10/10 01:38:21;;;;;;;4.78;2.47;;;9.70;91.30;;;;;;5035456;28;20797;-73
2022/10/10 01:40:55;;;;;;;4.55;1.52;;;9.70;91.40;;;;;;5031166;28;20025;-73
2022/10/10 01:43:23;;;;;;;4.22;1.60;;;9.70;91.40;;;;;;5033719;28;20022;-74
2022/10/10 01:45:51;;;;;;;3.63;1.60;;;9.60;91.40;;;;;;5027603;28;20517;-73
2022/10/10 01:48:20;;;;;;;3.72;1.50;;;9.60;91.40;;;;;;5034123;28;20026;-73
2022/10/10 01:51:01;;;;;;;4.13;1.90;;;9.60;91.40;;;;;;5035205;28;20071;-68
2022/10/10 01:54:10;;;;;;;6.10;1.45;;;9.60;91.50;;;;;;5032926;28;20086;-73
2022/10/10 01:57:11;;;;;;;5.38;1.83;;;9.60;91.50;;;;;;5037734;28;20052;-73
2022/10/10 02:00:02;;;;;;;3.83;1.98;;;9.50;91.50;;;;;;5031430;28;20527;-73
2022/10/10 02:02:57;;;;;;;4.15;2.08;;;9.50;91.60;;;;;;5029325;28;20044;-73
2022/10/10 02:05:41;;;;;;;4.53;1.50;;;9.50;91.70;;;;;;5038895;28;20044;-73
2022/10/10 02:08:32;;;;;;;4.03;1.48;;;9.40;91.70;;;;;;5034228;28;20032;-73
2022/10/10 02:11:07;;;;;;;6.05;1.88;;;9.40;91.80;;;;;;5036734;28;20055;-73
2022/10/10 02:13:56;;;;;;;3.22;1.70;;;9.40;91.80;;;;;;5035704;28;20041;-73
2022/10/10 02:16:26;;;;;;;6.88;1.95;;;9.40;91.90;;;;;;5030229;28;20037;-73
2022/10/10 02:18:54;;;;;;;5.25;1.55;;;9.40;91.90;;;;;;5033765;28;20055;-73
2022/10/10 02:21:21;;;;;;;5.72;1.63;;;9.40;91.80;;;;;;5028332;28;20529;-73
2022/10/10 02:23:51;;;;;;;5.03;1.63;;;9.30;91.80;;;;;;5028765;28;20396;-73
2022/10/10 02:26:19;;;;;;;7.05;2.10;;;9.30;91.90;;;;;;5030919;28;20065;-73
2022/10/10 02:29:02;;;;;;;4.43;1.73;;;9.30;91.90;;;;;;5033873;28;20052;-74
2022/10/10 02:31:37;;;;;;;5.53;1.67;;;9.30;92.00;;;;;;5032532;28;20094;-74
2022/10/10 02:34:17;;;;;;;5.00;1.65;;;9.30;92.10;;;;;;5035247;28;20040;-73
2022/10/10 02:36:48;;;;;;;4.95;1.92;;;9.30;92.20;;;;;;5028549;28;20045;-68
2022/10/10 02:39:17;;;;;;;6.13;1.90;;;9.30;92.20;;;;;;5032848;28;20140;-67
2022/10/10 02:41:45;;;;;;;2.42;1.63;;;9.30;92.20;;;;;;5032580;28;20037;-68
2022/10/10 02:44:11;;;;;;;4.03;1.58;;;9.30;92.20;;;;;;5023350;28;20083;-68
2022/10/10 02:46:37;;;;;;;6.40;1.90;;;9.30;92.20;;;;;;5032063;28;20123;-67
2022/10/10 02:49:07;;;;;;;3.05;1.38;;;9.40;92.20;;;;;;5037085;28;20115;-68
2022/10/10 02:51:33;;;;;;;4.50;1.50;;;9.30;92.10;;;;;;5029261;28;20116;-68
2022/10/10 02:53:59;;;;;;;3.33;1.92;;;9.40;92.20;;;;;;5032345;28;20025;-68
2022/10/10 02:56:24;;;;;;;4.90;2.05;;;9.40;92.20;;;;;;5032373;28;20789;-68
2022/10/10 02:58:50;;;;;;;3.63;1.80;;;9.40;92.20;;;;;;5030240;28;20181;-67
2022/10/10 03:01:16;;;;;;;5.70;1.63;;;9.40;92.10;;;;;;5029237;28;20758;-68
2022/10/10 03:03:42;;;;;;;7.97;1.80;;;9.30;92.10;;;;;;5029891;28;20033;-67
2022/10/10 03:06:08;;;;;;;4.07;1.60;;;9.30;92.10;;;;;;5026463;28;20052;-68
2022/10/10 03:08:37;;;;;;;4.20;1.63;;;9.30;92.00;;;;;;5032840;28;20041;-67
2022/10/10 03:11:04;;;;;;;5.72;1.67;;;9.40;92.00;;;;;;5034816;28;20029;-68
2022/10/10 03:13:29;;;;;;;6.78;3.05;;;9.30;92.00;;;;;;5028019;28;20025;-68
2022/10/10 03:15:55;;;;;;;4.88;1.98;;;9.30;92.00;;;;;;5031255;28;20748;-67
2022/10/10 03:18:21;;;;;;;7.63;2.10;;;9.30;92.00;;;;;;5030808;28;20106;-68
2022/10/10 03:20:52;;;;;;;6.88;2.08;;;9.30;92.00;;;;;;5024048;28;20041;-68
2022/10/10 03:23:18;;;;;;;4.20;1.50;;;9.30;92.00;;;;;;5032380;28;20034;-68
2022/10/10 03:25:44;;;;;;;7.32;1.85;;;9.30;91.90;;;;;;5032434;28;20086;-67
2022/10/10 03:28:11;;;;;;;3.72;1.85;;;9.30;91.90;;;;;;5034950;28;20124;-67
2022/10/10 03:30:38;;;;;;;5.15;1.85;;;9.40;91.90;;;;;;5030935;28;20045;-68
2022/10/10 03:33:04;;;;;;;5.53;1.73;;;9.40;91.90;;;;;;5031356;28;20029;-68
2022/10/10 03:35:30;;;;;;;3.92;1.85;;;9.30;91.80;;;;;;5029996;28;20148;-68
2022/10/10 03:37:56;;;;;;;5.32;1.77;;;9.30;92.00;;;;;;5032596;28;20144;-67
2022/10/10 03:40:23;;;;;;;3.65;1.75;;;9.30;91.70;;;;;;5027624;28;20044;-68
2022/10/10 03:42:48;;;;;;;5.88;1.70;;;9.30;91.70;;;;;;5025031;28;20091;-68
2022/10/10 03:45:15;;;;;;;4.00;1.73;;;9.30;91.80;;;;;;5034257;28;20033;-67
2022/10/10 03:47:41;;;;;;;5.70;1.75;;;9.30;91.60;;;;;;5037931;28;20714;-68
2022/10/10 03:50:07;;;;;;;3.38;1.85;;;9.20;91.60;;;;;;5032476;28;20033;-67
2022/10/10 03:52:32;;;;;;;6.20;1.83;;;9.20;91.60;;;;;;5034230;28;20036;-67
2022/10/10 03:54:58;;;;;;;7.10;2.42;;;9.20;91.60;;;;;;5035529;28;20048;-68
2022/10/10 03:57:24;;;;;;;6.68;1.90;;;9.10;91.70;;;;;;5027982;28;20030;-67
2022/10/10 03:59:50;;;;;;;3.00;1.52;;;9.10;91.60;;;;;;5035743;28;20040;-67
2022/10/10 04:02:15;;;;;;;5.75;1.95;;;9.10;91.70;;;;;;5033517;28;20559;-67
2022/10/10 04:04:41;;;;;;;4.68;1.88;;;9.00;91.60;;;;;;5040127;28;20037;-67
2022/10/10 04:07:07;;;;;;;3.03;1.92;;;9.00;91.60;;;;;;5035937;28;20766;-67
2022/10/10 04:09:33;;;;;;;3.00;1.98;;;9.00;91.50;;;;;;5036023;28;20045;-67
2022/10/10 04:11:59;;;;;;;3.20;1.73;;;9.00;91.60;;;;;;5031569;28;20028;-67
2022/10/10 04:14:25;;;;;;;5.57;2.05;;;8.90;91.70;;;;;;5033423;28;20037;-68
2022/10/10 04:16:50;;;;;;;4.20;1.75;;;8.90;91.80;;;;;;5032623;28;20040;-68
2022/10/10 04:19:16;;;;;;;6.93;2.00;;;8.90;91.70;;;;;;5030351;28;20029;-68
2022/10/10 04:21:42;;;;;;;2.97;1.83;;;8.90;91.80;;;;;;5035572;28;20563;-68
2022/10/10 04:24:08;;;;;;;5.13;1.58;;;8.80;91.80;;;;;;5036060;28;20029;-68
2022/10/10 04:26:34;;;;;;;5.97;2.00;;;8.80;91.90;;;;;;5035979;28;20389;-67
2022/10/10 04:29:00;;;;;;;6.60;1.67;;;8.80;92.00;;;;;;5029354;28;20683;-67
2022/10/10 04:31:26;;;;;;;6.20;1.73;;;8.80;91.90;;;;;;5033028;28;20108;-68
2022/10/10 04:33:52;;;;;;;2.38;1.70;;;8.70;91.90;;;;;;5033253;28;20796;-73
2022/10/10 04:36:17;;;;;;;4.88;1.80;;;8.80;92.00;;;;;;5030041;28;20029;-73
2022/10/10 04:38:43;;;;;;;3.70;1.75;;;8.70;92.00;;;;;;5030586;28;20096;-73
2022/10/10 04:41:09;;;;;;;4.95;1.70;;;8.70;92.20;;;;;;5036750;28;20025;-72
2022/10/10 04:43:35;;;;;;;6.45;1.75;;;8.70;92.10;;;;;;5035889;28;20033;-73
2022/10/10 04:46:00;;;;;;;4.18;1.80;;;8.70;92.00;;;;;;5035073;28;20021;-73
2022/10/10 04:48:26;;;;;;;3.97;1.80;;;8.60;92.00;;;;;;5035890;28;20029;-72
2022/10/10 04:50:54;;;;;;;4.32;1.80;;;8.60;92.10;;;;;;5027397;28;20029;-73
2022/10/10 04:53:19;;;;;;;4.70;1.52;;;8.60;92.20;;;;;;5030019;28;20087;-73
2022/10/10 04:55:45;;;;;;;4.28;1.90;;;8.60;92.30;;;;;;5031053;28;20029;-73
2022/10/10 04:58:11;;;;;;;4.93;1.65;;;8.50;92.40;;;;;;5032612;28;20137;-73
2022/10/10 05:00:37;;;;;;;5.20;2.13;;;8.50;92.50;;;;;;5030991;28;20033;-73
2022/10/10 05:03:03;;;;;;;5.55;2.00;;;8.50;92.50;;;;;;5032069;28;20069;-73
2022/10/10 05:05:29;;;;;;;8.32;1.80;;;8.50;92.50;;;;;;5029067;28;20029;-73
2022/10/10 05:07:55;;;;;;;5.38;1.83;;;8.40;92.50;;;;;;5031187;28;20090;-73
2022/10/10 05:10:21;;;;;;;4.57;1.85;;;8.40;92.60;;;;;;5029146;28;20025;-73
2022/10/10 05:12:47;;;;;;;6.30;2.10;;;8.40;92.60;;;;;;5031660;28;20037;-73
2022/10/10 05:15:13;;;;;;;3.80;2.00;;;8.40;92.60;;;;;;5026905;28;20083;-73
2022/10/10 05:17:39;;;;;;;3.53;1.70;;;8.40;92.60;;;;;;5027900;28;20037;-73
2022/10/10 05:20:05;;;;;;;4.00;1.73;;;8.30;92.70;;;;;;5033817;28;20078;-73
2022/10/10 05:22:31;;;;;;;6.68;1.65;;;8.30;92.80;;;;;;5026760;28;20033;-72
2022/10/10 05:24:58;;;;;;;3.08;1.80;;;8.30;93.00;;;;;;5035493;28;20029;-73
2022/10/10 05:27:25;;;;;;;4.97;1.80;;;8.30;93.10;;;;;;5037134;28;20037;-73
2022/10/10 05:29:51;;;;;;;6.78;1.58;;;8.30;93.20;;;;;;5027395;28;20283;-67
2022/10/10 05:32:16;;;;;;;4.18;1.95;;;8.30;93.30;;;;;;5033350;28;20036;-67
2022/10/10 05:34:42;;;;;;;6.85;1.73;;;8.30;93.20;;;;;;5028640;28;20052;-67
2022/10/10 05:37:08;;;;;;;3.58;2.08;;;8.40;93.30;;;;;;5026670;28;20041;-73
2022/10/10 05:39:34;;;;;;;4.55;2.20;;;8.40;93.30;;;;;;5031142;28;20021;-73
2022/10/10 05:42:00;;;;;;;4.43;1.85;;;8.40;93.40;;;;;;5028849;28;20858;-73
2022/10/10 05:44:26;;;;;;;3.85;1.73;;;8.40;93.30;;;;;;5036853;28;20114;-73
2022/10/10 05:46:52;;;;;;;3.67;1.88;;;8.40;93.40;;;;;;5032552;28;20324;-73
2022/10/10 05:49:18;;;;;;;4.30;1.83;;;8.40;93.40;;;;;;5030762;28;20117;-73
2022/10/10 05:51:44;;;;;;;3.88;1.80;;;8.40;93.30;;;;;;5030321;28;20034;-73
2022/10/10 05:54:10;;;;;;;6.68;1.90;;;8.50;93.20;;;;;;5031786;28;20037;-73
2022/10/10 05:56:36;;;;;;;5.07;2.03;;;8.50;93.10;;;;;;5029039;28;20771;-73
2022/10/10 05:59:02;;;;;;;3.03;1.85;;;8.60;93.10;;;;;;5029950;28;20021;-73
2022/10/10 06:01:28;;;;;;;5.90;2.30;;;8.60;93.00;;;;;;5030517;28;20033;-73
2022/10/10 06:03:54;;;;;;;9.63;2.53;;;8.60;92.90;;;;;;5031429;28;20094;-73
2022/10/10 06:06:21;;;;;;;4.95;1.70;;;8.70;92.90;;;;;;5031795;28;20561;-73
2022/10/10 06:08:48;;;;;;;4.25;1.63;;;8.70;92.80;;;;;;5030926;28;20115;-72
2022/10/10 06:11:16;;;;;;;4.22;1.92;;;8.70;92.80;;;;;;5028086;28;20057;-73
2022/10/10 06:13:42;;;;;;;4.03;2.15;;;8.70;92.80;;;;;;5023951;28;20044;-73
2022/10/10 06:16:09;;;;;;;6.65;2.10;;;8.70;92.80;;;;;;5032796;28;20241;-73
2022/10/10 06:18:35;;;;;;;8.32;2.33;;;8.80;92.70;;;;;;5030569;28;20489;-73
2022/10/10 06:21:03;;;;;;;6.00;1.92;;;8.80;92.60;;;;;;5029770;28;20037;-73
2022/10/10 06:23:29;;;;;;;6.00;2.30;;;8.80;92.60;;;;;;5029309;28;20063;-73
2022/10/10 06:25:55;;;;;;;7.15;2.20;;;8.90;92.40;;;;;;5032204;28;20821;-73
2022/10/10 06:28:21;;;;;;;4.70;2.22;;;8.90;92.40;;;;;;5031024;28;20091;-72
2022/10/10 06:30:49;;;;;;;4.80;1.98;;;9.00;92.40;;;;;;5027732;28;20044;-72
2022/10/10 06:33:17;;;;;;;4.50;1.75;;;9.00;92.50;;;;;;5029462;28;20037;-73
2022/10/10 06:35:46;;;;;;;4.32;1.80;;;9.10;92.40;;;;;;5028610;28;20715;-73
2022/10/10 06:38:14;;;;;;;3.13;1.88;;;9.10;92.40;;;;;;5031139;28;20030;-67
2022/10/10 06:40:40;;;;;;;5.63;2.33;;;9.20;92.40;;;;;;5031370;28;20445;-67
2022/10/10 06:43:10;;;;;;;6.45;2.03;;;9.20;92.30;;;;;;5025896;28;20036;-72
2022/10/10 06:45:41;;;;;;;4.78;2.13;;;9.30;92.20;;;;;;5035751;28;20037;-73
2022/10/10 06:48:07;;;;;;;5.13;2.53;;;9.30;92.10;;;;;;5026936;28;20124;-72
2022/10/10 06:50:33;;;;;;;4.78;2.15;;;9.30;92.00;;;;;;5029053;28;20036;-72
2022/10/10 06:52:59;;;;;;;5.57;2.17;;;9.40;92.10;;;;;;5032238;28;20032;-73
2022/10/10 06:55:25;;;;;;;6.55;2.22;;;9.40;92.10;;;;;;5030577;28;20413;-73
2022/10/10 06:57:50;;;;;;;4.60;2.17;;;9.50;92.10;;;;;;5029118;28;20029;-73
2022/10/10 07:00:16;;;;;;;4.60;1.65;;;9.60;92.10;;;;;;5027644;28;20371;-73
2022/10/10 07:02:43;;;;;;;8.02;2.40;;;9.60;92.10;;;;;;5027131;28;20064;-73
2022/10/10 07:05:12;;;;;;;6.35;2.10;;;9.70;91.90;;;;;;5031916;28;20400;-73
2022/10/10 07:07:39;;;;;;;5.75;1.98;;;9.80;91.80;;;;;;5030099;28;20036;-73
2022/10/10 07:10:06;;;;;;;4.38;2.10;;;9.90;91.50;;;;;;5027026;28;20525;-73
2022/10/10 07:12:32;;;;;;;4.22;2.03;;;9.90;91.40;;;;;;5033114;28;20107;-73
2022/10/10 07:14:58;;;;;;;4.00;2.22;;;10.00;91.20;;;;;;5030098;28;20543;-73
2022/10/10 07:17:23;;;;;;;3.30;1.92;;;10.10;91.00;;;;;;5031159;28;20029;-73
2022/10/10 07:19:49;;;;;;;9.93;2.00;;;10.20;90.40;;;;;;5033451;28;20456;-67
2022/10/10 07:22:15;;;;;;;4.72;2.10;;;10.20;90.50;;;;;;5023821;28;20026;-67
2022/10/10 07:24:41;;;;;;;3.97;1.80;;;10.20;90.70;;;;;;5030674;28;20033;-67
2022/10/10 07:27:06;;;;;;;5.70;1.80;;;10.40;90.50;;;;;;5026159;28;20037;-67
2022/10/10 07:29:32;;;;;;;2.42;1.65;;;10.60;90.50;;;;;;5026603;28;20040;-67
2022/10/10 07:31:58;;;;;;;2.53;1.48;;;10.80;89.20;;;;;;5026611;28;20768;-67
2022/10/10 07:34:24;;;;;;;5.10;1.80;;;10.80;88.80;;;;;;5035121;28;20060;-67
2022/10/10 07:36:50;;;;;;;6.20;2.25;;;10.90;89.00;;;;;;5033402;28;20078;-67
2022/10/10 07:39:20;;;;;;;4.15;1.63;;;11.00;88.20;;;;;;5026003;28;20042;-67
2022/10/10 07:41:46;;;;;;;4.28;1.80;;;11.00;88.60;;;;;;5032954;28;20385;-67
2022/10/10 07:44:12;;;;;;;3.85;1.77;;;11.20;88.10;;;;;;5028627;28;20029;-67
2022/10/10 07:46:38;;;;;;;4.53;1.80;;;11.20;87.30;;;;;;5028951;28;20119;-67
2022/10/10 07:49:04;;;;;;;5.95;2.10;;;11.30;87.50;;;;;;5037355;28;20024;-67
2022/10/10 07:51:29;;;;;;;5.93;1.65;;;11.40;87.40;;;;;;5030098;28;20571;-67
2022/10/10 07:53:55;;;;;;;12.63;2.00;;;11.40;85.60;;;;;;5030326;28;20048;-68
2022/10/10 07:56:21;;;;;;;4.47;1.90;;;11.40;86.40;;;;;;5026644;28;20107;-67
2022/10/10 07:58:47;;;;;;;6.63;2.45;;;11.40;87.00;;;;;;5025132;28;20378;-73
2022/10/10 08:01:12;;;;;;;5.32;1.80;;;11.50;86.90;;;;;;5027933;28;20028;-73
2022/10/10 08:03:39;;;;;;;3.88;1.90;;;11.60;86.10;;;;;;5027026;28;20029;-73
2022/10/10 08:06:07;;;;;;;5.60;1.60;;;11.70;85.20;;;;;;5032329;28;20030;-73
2022/10/10 08:08:34;;;;;;;2.72;1.48;;;11.80;85.30;;;;;;5030375;28;20037;-73
2022/10/10 08:11:00;;;;;;;5.05;2.03;;;11.90;85.60;;;;;;5030085;28;20484;-73
2022/10/10 08:13:26;;;;;;;4.43;1.58;;;12.00;84.80;;;;;;5025462;28;20103;-73
2022/10/10 08:15:53;;;;;;;4.28;1.67;;;12.10;85.30;;;;;;5029656;28;20476;-73
2022/10/10 08:18:19;;;;;;;8.10;2.20;;;12.20;84.00;;;;;;5024973;28;20022;-73
2022/10/10 08:20:44;;;;;;;3.97;1.83;;;12.20;83.40;;;;;;5024496;28;20029;-73
2022/10/10 08:23:10;;;;;;;5.55;1.67;;;12.30;82.60;;;;;;5029387;28;20828;-73
2022/10/10 08:25:36;;;;;;;3.20;1.80;;;12.30;82.80;;;;;;5032322;28;20041;-73
2022/10/10 08:28:02;;;;;;;3.95;1.83;;;12.40;82.60;;;;;;5030807;28;20175;-73
2022/10/10 08:30:28;;;;;;;4.03;1.70;;;12.50;82.00;;;;;;5031816;28;20128;-73
2022/10/10 08:32:54;;;;;;;4.32;1.55;;;12.50;81.60;;;;;;5033801;28;20035;-68
2022/10/10 08:35:19;;;;;;;5.38;1.70;;;12.60;81.80;;;;;;5030438;28;20566;-68
2022/10/10 08:37:45;;;;;;;3.97;1.55;;;12.70;81.60;;;;;;5035573;28;20041;-68
2022/10/10 08:40:19;;;;;;;5.85;1.70;;;12.80;82.10;;;;;;5037527;28;20029;-67
2022/10/10 08:42:52;;;;;;;5.32;2.00;;;12.90;82.40;;;;;;5027333;28;20061;-66
2022/10/10 08:45:25;;;;;;;4.35;1.73;;;13.10;81.50;;;;;;5030309;28;20029;-73
2022/10/10 08:47:57;;;;;;;3.83;1.63;;;13.20;81.60;;;;;;5030616;28;20079;-73
2022/10/10 08:50:29;;;;;;;3.78;2.17;;;13.40;80.20;;;;;;5030814;28;20040;-73
2022/10/10 08:53:04;;;;;;;2.38;1.50;;;13.40;77.60;;;;;;5034459;28;20095;-73
2022/10/10 08:55:33;;;;;;;2.92;1.50;;;13.40;78.20;;;;;;5027239;28;20758;-73
2022/10/10 08:58:17;;;;;;;3.97;1.70;;;13.40;78.30;;;;;;5027442;28;20036;-70
2022/10/10 09:01:06;;;;;;;4.00;1.60;;;13.50;78.10;;;;;;5026818;28;20037;-74
2022/10/10 09:03:52;;;;;;;3.67;1.98;;;13.60;77.60;;;;;;5031317;28;20130;-73
2022/10/10 09:06:42;;;;;;;3.20;1.58;;;13.90;77.50;;;;;;5030342;28;20061;-73
2022/10/10 09:09:30;;;;;;;5.75;2.20;;;14.10;76.20;;;;;;5029227;28;20033;-72
2022/10/10 09:12:27;;;;;;;5.35;2.10;;;14.20;77.50;;;;;;5030151;28;20147;-74
2022/10/10 09:15:22;;;;;;;2.25;1.40;;;14.30;77.70;;;;;;5033208;28;20057;-68
2022/10/10 09:18:21;;;;;;;4.22;1.88;;;14.50;76.70;;;;;;5029674;28;20036;-73
2022/10/10 09:20:55;;;;;;;4.43;1.60;;;14.60;76.60;;;;;;5029077;28;20082;-74
2022/10/10 09:23:32;;;;;;;3.05;1.80;;;14.70;75.20;;;;;;5030201;28;20492;-73
2022/10/10 09:26:17;;;;;;;6.28;1.63;;;14.60;74.40;;;;;;5034252;28;20079;-72
2022/10/10 09:29:05;;;;;;;4.03;1.58;;;14.50;76.40;;;;;;5035590;28;20033;-68
2022/10/10 09:31:49;;;;;;;4.05;1.85;;;14.50;77.80;;;;;;5028527;28;20068;-69
2022/10/10 09:34:34;;;;;;;5.93;1.70;;;14.70;76.50;;;;;;5022107;28;20811;-68
2022/10/10 09:37:02;;;;;;;2.92;1.35;;;14.80;75.10;;;;;;5031097;28;20065;-69
2022/10/10 09:39:52;;;;;;;6.97;2.08;;;15.00;76.30;;;;;;5028009;28;20037;-69
2022/10/10 09:42:28;;;;;;;3.88;1.98;;;15.20;73.90;;;;;;5035155;28;20041;-68
2022/10/10 09:44:53;;;;;;;3.80;1.90;;;15.30;74.60;;;;;;5029333;28;20033;-68
2022/10/10 09:47:20;;;;;;;3.42;1.83;;;15.60;74.60;;;;;;5030478;28;20068;-67
2022/10/10 09:49:46;;;;;;;3.72;1.73;;;15.90;72.50;;;;;;5033956;28;20033;-68
2022/10/10 09:52:23;;;;;;;3.90;1.83;;;15.90;71.10;;;;;;5028039;28;20037;-67
2022/10/10 09:54:54;;;;;;;4.15;1.90;;;15.80;71.60;;;;;;5029300;28;20551;-67
2022/10/10 09:57:24;;;;;;;5.75;1.83;;;15.70;72.10;;;;;;5031408;28;20053;-67
2022/10/10 09:59:50;;;;;;;4.05;1.83;;;15.60;70.80;;;;;;5025636;28;20152;-67
2022/10/10 10:02:17;;;;;;;4.40;1.85;;;15.60;70.70;;;;;;5032125;28;20026;-67
2022/10/10 10:04:43;;;;;;;3.55;1.70;;;16.20;69.60;;;;;;5027534;28;20461;-67
2022/10/10 10:07:29;;;;;;;3.53;1.70;;;17.60;66.90;;;;;;5031386;28;20033;-67
2022/10/10 10:10:01;;;;;;;3.45;1.52;;;19.30;61.30;;;;;;5029781;28;20041;-67
2022/10/10 10:12:30;;;;;;;6.30;2.17;;;20.50;57.00;;;;;;5031367;28;20057;-67
2022/10/10 10:15:14;;;;;;;4.20;1.60;;;21.00;55.30;;;;;;5026118;28;20128;-67
2022/10/10 10:17:40;;;;;;;5.70;1.48;;;21.00;54.70;;;;;;5032655;28;20091;-68
2022/10/10 10:20:29;;;;;;;6.07;1.67;;;20.30;55.90;;;;;;5031344;28;20481;-70
2022/10/10 10:22:55;;;;;;;8.32;1.88;;;20.40;55.70;;;;;;5039543;28;20119;-72
2022/10/10 10:25:36;;;;;;;4.53;1.58;;;20.80;54.90;;;;;;5031142;28;20540;-71
2022/10/10 10:28:15;;;;;;;6.10;1.70;;;21.40;52.80;;;;;;5030633;28;20362;-73
2022/10/10 10:30:45;;;;;;;6.88;2.25;;;21.10;52.70;;;;;;5031383;28;20036;-72
2022/10/10 10:33:39;;;;;;;2.83;1.70;;;21.20;54.00;;;;;;5027431;28;20715;-72
2022/10/10 10:36:23;;;;;;;5.55;1.67;;;22.40;52.00;;;;;;5030157;28;20040;-71
2022/10/10 10:39:18;;;;;;;4.53;1.83;;;23.70;47.50;;;;;;5025092;28;20467;-71
2022/10/10 10:42:00;;;;;;;6.78;1.77;;;24.00;45.60;;;;;;5031090;28;20033;-71
2022/10/10 10:44:45;;;;;;;2.63;1.33;;;24.30;45.80;;;;;;5029287;28;20029;-71
2022/10/10 10:47:32;;;;;;;4.53;1.70;;;25.10;45.20;;;;;;5031609;28;20116;-71
2022/10/10 10:50:16;;;;;;;2.95;1.55;;;24.80;44.60;;;;;;5028777;28;20036;-72
2022/10/10 10:53:09;;;;;;;4.55;1.50;;;24.50;44.90;;;;;;5024945;28;20045;-71
2022/10/10 10:55:47;;;;;;;4.22;2.13;;;23.90;46.00;;;;;;5024724;28;20937;-71
2022/10/10 10:58:39;;;;;;;5.15;1.70;;;22.80;47.70;;;;;;5032884;28;20492;-71
2022/10/10 11:01:14;;;;;;;5.05;1.80;;;21.50;51.20;;;;;;5032717;28;20037;-71
2022/10/10 11:03:57;;;;;;;3.33;1.60;;;20.30;55.20;;;;;;5028189;28;20858;-71
2022/10/10 11:06:38;;;;;;;3.40;1.42;;;19.60;56.40;;;;;;5029448;28;20071;-72
2022/10/10 11:09:15;;;;;;;3.65;1.60;;;18.90;58.20;;;;;;5026176;28;20025;-71
2022/10/10 11:11:50;;;;;;;7.30;1.55;;;18.70;59.80;;;;;;5024676;28;20733;-71
2022/10/10 11:14:38;;;;;;;4.23;1.83;;;18.50;59.30;;;;;;5027345;28;20034;-72
2022/10/10 11:17:15;;;;;;;3.42;1.55;;;18.10;60.00;;;;;;5031919;28;20386;-71
2022/10/10 11:19:55;;;;;;;4.55;1.85;;;17.90;61.20;;;;;;5027147;28;20039;-71
2022/10/10 11:22:45;;;;;;;4.18;1.67;;;17.70;62.30;;;;;;5026119;28;20044;-74
2022/10/10 11:25:22;;;;;;;3.15;1.67;;;17.60;62.40;;;;;;5026974;28;20067;-72
2022/10/10 11:28:10;;;;;;;6.45;1.88;;;17.60;63.20;;;;;;5027129;28;20789;-72
2022/10/10 11:30:42;;;;;;;5.05;1.80;;;17.60;64.70;;;;;;5031118;28;20068;-70
2022/10/10 11:33:47;;;;;;;3.50;1.35;;;17.60;64.10;;;;;;5026065;28;20033;-70
2022/10/10 11:36:19;;;;;;;3.83;1.60;;;17.70;63.10;;;;;;5028570;28;20033;-70
2022/10/10 11:38:48;;;;;;;4.28;1.52;;;17.70;63.40;;;;;;5026782;28;20496;-70
2022/10/10 11:41:25;;;;;;;6.32;1.50;;;17.60;64.00;;;;;;5027843;28;20036;-71
2022/10/10 11:44:21;;;;;;;3.13;1.50;;;17.70;64.60;;;;;;5029061;28;20037;-71
2022/10/10 11:47:14;;;;;;;3.85;1.60;;;17.70;63.90;;;;;;5030615;28;20053;-70
2022/10/10 11:49:51;;;;;;;6.45;1.90;;;17.70;65.00;;;;;;5025804;28;20041;-70
2022/10/10 11:52:27;;;;;;;3.20;1.38;;;17.70;64.00;;;;;;5031365;28;20162;-69
2022/10/10 11:55:09;;;;;;;4.75;1.75;;;17.70;64.20;;;;;;5029052;28;20037;-70
2022/10/10 11:57:53;;;;;;;5.05;1.35;;;17.60;63.80;;;;;;5027828;28;20045;-69
2022/10/10 12:00:20;;;;;;;5.10;1.60;;;17.60;64.90;;;;;;5029482;28;20026;-70
2022/10/10 12:02:47;;;;;;;2.38;1.60;;;17.70;66.10;;;;;;5026632;28;20040;-70
2022/10/10 12:05:18;;;;;;;4.15;2.20;;;17.80;65.80;;;;;;5031463;28;20036;-74
2022/10/10 12:07:56;;;;;;;8.70;2.55;;;17.90;65.20;;;;;;5027562;28;20048;-76
2022/10/10 12:10:43;;;;;;;2.65;1.90;;;18.00;65.10;;;;;;5032816;28;20025;-73
2022/10/10 12:13:24;;;;;;;6.90;2.00;;;18.00;64.30;;;;;;5031256;28;20017;-74
2022/10/10 12:15:53;;;;;;;5.60;1.85;;;18.10;64.80;;;;;;5033685;28;20099;-75
2022/10/10 12:18:43;;;;;;;6.05;2.15;;;18.20;64.70;;;;;;5034096;28;20501;-76
2022/10/10 12:21:15;;;;;;;3.08;1.75;;;18.30;63.90;;;;;;5028701;28;20031;-76
2022/10/10 12:23:47;;;;;;;4.47;2.20;;;18.20;64.60;;;;;;5030107;28;20576;-75
2022/10/10 12:26:20;;;;;;;5.72;2.50;;;18.30;64.90;;;;;;5031540;28;20029;-76
2022/10/10 12:29:00;;;;;;;5.57;2.90;;;18.40;64.20;;;;;;5030009;28;20124;-76
2022/10/10 12:31:36;;;;;;;4.72;2.17;;;18.40;64.30;;;;;;5033096;28;20029;-76
2022/10/10 12:34:43;;;;;;;5.63;1.95;;;18.40;64.40;;;;;;5035942;28;20095;-76
2022/10/10 12:37:25;;;;;;;4.45;2.70;;;18.30;64.50;;;;;;5039342;28;20508;-77
2022/10/10 12:40:05;;;;;;;6.00;2.25;;;18.40;64.70;;;;;;5038548;28;20123;-76
2022/10/10 12:42:33;;;;;;;4.93;2.10;;;18.50;64.70;;;;;;5034500;28;20052;-76
2022/10/10 12:44:59;;;;;;;3.33;2.00;;;18.50;64.80;;;;;;5032147;28;20028;-75
2022/10/10 12:47:41;;;;;;;7.82;2.47;;;18.50;64.90;;;;;;5025684;28;20140;-75
2022/10/10 12:50:33;;;;;;;4.25;2.28;;;18.40;65.70;;;;;;5029090;28;20382;-76
2022/10/10 12:53:04;;;;;;;3.45;1.88;;;18.40;65.90;;;;;;5029565;28;20057;-76
2022/10/10 12:55:50;;;;;;;5.47;2.38;;;18.50;64.90;;;;;;5029457;28;20106;-75
2022/10/10 12:58:20;;;;;;;5.78;2.25;;;18.50;64.80;;;;;;5034493;28;20040;-76
2022/10/10 13:00:47;;;;;;;2.75;1.67;;;18.50;66.00;;;;;;5031255;28;20041;-79
2022/10/10 13:03:22;;;;;;;4.72;1.75;;;18.60;65.60;;;;;;5031339;28;20025;-71
2022/10/10 13:05:50;;;;;;;8.05;2.00;;;18.80;64.90;;;;;;5031466;28;20569;-73
2022/10/10 13:08:36;;;;;;;6.30;2.03;;;18.90;64.00;;;;;;5028956;28;20045;-73
2022/10/10 13:11:06;;;;;;;4.00;2.17;;;18.80;64.20;;;;;;5030511;28;20067;-73
2022/10/10 13:13:32;;;;;;;3.80;2.10;;;18.80;64.20;;;;;;5035746;28;20039;-73
2022/10/10 13:16:04;;;;;;;4.63;2.25;;;18.80;64.40;;;;;;5026858;28;20469;-73
2022/10/10 13:18:53;;;;;;;8.20;3.40;;;18.80;64.40;;;;;;5028482;28;20401;-72